sensor_id;sensor_type;location;lat;lon;timestamp;P1;durP1;ratioP1;P2;durP2;ratioP2
24425;SDS011;12611;44.446;26.000;2022-12-29T00:01:47;30.23;;;14.53;;
24425;SDS011;12611;44.446;26.000;2022-12-29T00:04:15;33.20;;;15.83;;
24425;SDS011;12611;44.446;26.000;2022-12-29T00:06:44;30.90;;;15.23;;
24425;SDS011;12611;44.446;26.000;2022-12-29T00:09:13;37.77;;;15.13;;
24425;SDS011;12611;44.446;26.000;2022-12-29T00:11:42;35.80;;;15.03;;
24425;SDS011;12611;44.446;26.000;2022-12-29T00:14:11;30.30;;;14.50;;
24425;SDS011;12611;44.446;26.000;2022-12-29T00:16:59;32.57;;;15.03;;
24425;SDS011;12611;44.446;26.000;2022-12-29T00:19:27;34.00;;;14.87;;
24425;SDS011;12611;44.446;26.000;2022-12-29T00:22:13;31.20;;;15.53;;
24425;SDS011;12611;44.446;26.000;2022-12-29T00:24:59;33.83;;;16.07;;
24425;SDS011;12611;44.446;26.000;2022-12-29T00:27:45;28.27;;;15.13;;
24425;SDS011;12611;44.446;26.000;2022-12-29T00:30:33;30.87;;;15.10;;
24425;SDS011;12611;44.446;26.000;2022-12-29T00:33:26;30.90;;;15.30;;
24425;SDS011;12611;44.446;26.000;2022-12-29T00:36:14;34.83;;;15.73;;
24425;SDS011;12611;44.446;26.000;2022-12-29T00:38:45;34.77;;;15.40;;
24425;SDS011;12611;44.446;26.000;2022-12-29T00:41:34;33.20;;;15.93;;
24425;SDS011;12611;44.446;26.000;2022-12-29T00:44:19;35.93;;;15.57;;
24425;SDS011;12611;44.446;26.000;2022-12-29T00:46:48;36.50;;;15.43;;
24425;SDS011;12611;44.446;26.000;2022-12-29T00:49:18;29.80;;;15.63;;
24425;SDS011;12611;44.446;26.000;2022-12-29T00:52:06;43.38;;;20.55;;
24425;SDS011;12611;44.446;26.000;2022-12-29T00:54:36;33.23;;;17.00;;
24425;SDS011;12611;44.446;26.000;2022-12-29T00:57:06;36.20;;;17.80;;
24425;SDS011;12611;44.446;26.000;2022-12-29T00:59:36;33.63;;;17.17;;
24425;SDS011;12611;44.446;26.000;2022-12-29T01:02:05;39.30;;;16.90;;
24425;SDS011;12611;44.446;26.000;2022-12-29T01:04:35;38.80;;;17.13;;
24425;SDS011;12611;44.446;26.000;2022-12-29T01:07:04;32.50;;;16.20;;
24425;SDS011;12611;44.446;26.000;2022-12-29T01:09:32;36.23;;;17.33;;
24425;SDS011;12611;44.446;26.000;2022-12-29T01:12:18;37.57;;;17.63;;
24425;SDS011;12611;44.446;26.000;2022-12-29T01:15:07;36.37;;;17.63;;
24425;SDS011;12611;44.446;26.000;2022-12-29T01:17:37;45.90;;;18.50;;
24425;SDS011;12611;44.446;26.000;2022-12-29T01:20:07;40.50;;;17.90;;
24425;SDS011;12611;44.446;26.000;2022-12-29T01:22:37;40.10;;;18.80;;
24425;SDS011;12611;44.446;26.000;2022-12-29T01:25:05;38.00;;;17.93;;
24425;SDS011;12611;44.446;26.000;2022-12-29T01:27:35;47.17;;;22.60;;
24425;SDS011;12611;44.446;26.000;2022-12-29T01:30:03;39.47;;;19.10;;
24425;SDS011;12611;44.446;26.000;2022-12-29T01:32:33;50.00;;;19.83;;
24425;SDS011;12611;44.446;26.000;2022-12-29T01:35:01;41.73;;;19.73;;
24425;SDS011;12611;44.446;26.000;2022-12-29T01:37:31;33.77;;;17.73;;
24425;SDS011;12611;44.446;26.000;2022-12-29T01:39:59;43.75;;;21.77;;
24425;SDS011;12611;44.446;26.000;2022-12-29T01:42:28;38.00;;;18.97;;
24425;SDS011;12611;44.446;26.000;2022-12-29T01:44:56;40.33;;;19.13;;
24425;SDS011;12611;44.446;26.000;2022-12-29T01:47:26;38.07;;;18.63;;
24425;SDS011;12611;44.446;26.000;2022-12-29T01:50:03;41.50;;;18.83;;
24425;SDS011;12611;44.446;26.000;2022-12-29T01:52:38;36.63;;;18.07;;
24425;SDS011;12611;44.446;26.000;2022-12-29T01:55:09;41.17;;;17.53;;
24425;SDS011;12611;44.446;26.000;2022-12-29T01:57:40;44.47;;;19.43;;
24425;SDS011;12611;44.446;26.000;2022-12-29T02:00:11;43.00;;;18.47;;
24425;SDS011;12611;44.446;26.000;2022-12-29T02:02:43;33.43;;;17.47;;
24425;SDS011;12611;44.446;26.000;2022-12-29T02:05:16;43.17;;;17.67;;
24425;SDS011;12611;44.446;26.000;2022-12-29T02:07:52;38.77;;;18.27;;
24425;SDS011;12611;44.446;26.000;2022-12-29T02:10:21;38.13;;;17.70;;
24425;SDS011;12611;44.446;26.000;2022-12-29T02:12:52;36.47;;;17.90;;
24425;SDS011;12611;44.446;26.000;2022-12-29T02:15:21;36.80;;;18.97;;
24425;SDS011;12611;44.446;26.000;2022-12-29T02:18:00;34.20;;;18.30;;
24425;SDS011;12611;44.446;26.000;2022-12-29T02:24:10;37.00;;;17.67;;
24425;SDS011;12611;44.446;26.000;2022-12-29T02:27:17;43.10;;;20.57;;
24425;SDS011;12611;44.446;26.000;2022-12-29T02:30:28;46.43;;;21.20;;
24425;SDS011;12611;44.446;26.000;2022-12-29T02:33:05;36.23;;;19.60;;
24425;SDS011;12611;44.446;26.000;2022-12-29T02:35:42;36.67;;;18.73;;
24425;SDS011;12611;44.446;26.000;2022-12-29T02:38:18;44.50;;;19.53;;
24425;SDS011;12611;44.446;26.000;2022-12-29T02:40:57;39.57;;;18.93;;
24425;SDS011;12611;44.446;26.000;2022-12-29T02:43:35;40.00;;;18.90;;
24425;SDS011;12611;44.446;26.000;2022-12-29T02:46:10;30.20;;;17.60;;
24425;SDS011;12611;44.446;26.000;2022-12-29T02:48:45;39.23;;;19.17;;
24425;SDS011;12611;44.446;26.000;2022-12-29T02:51:20;38.53;;;20.42;;
24425;SDS011;12611;44.446;26.000;2022-12-29T02:53:53;40.10;;;19.27;;
24425;SDS011;12611;44.446;26.000;2022-12-29T02:56:40;41.30;;;19.50;;
24425;SDS011;12611;44.446;26.000;2022-12-29T02:59:08;39.53;;;18.77;;
24425;SDS011;12611;44.446;26.000;2022-12-29T03:01:45;38.17;;;18.90;;
24425;SDS011;12611;44.446;26.000;2022-12-29T03:04:49;40.78;;;21.65;;
24425;SDS011;12611;44.446;26.000;2022-12-29T03:07:27;35.53;;;17.57;;
24425;SDS011;12611;44.446;26.000;2022-12-29T03:10:08;39.60;;;18.43;;
24425;SDS011;12611;44.446;26.000;2022-12-29T03:12:46;37.10;;;17.50;;
24425;SDS011;12611;44.446;26.000;2022-12-29T03:15:39;36.90;;;20.10;;
24425;SDS011;12611;44.446;26.000;2022-12-29T03:18:32;31.63;;;16.67;;
24425;SDS011;12611;44.446;26.000;2022-12-29T03:21:08;31.60;;;17.07;;
24425;SDS011;12611;44.446;26.000;2022-12-29T03:23:40;36.90;;;18.57;;
24425;SDS011;12611;44.446;26.000;2022-12-29T03:26:14;34.30;;;16.37;;
24425;SDS011;12611;44.446;26.000;2022-12-29T03:28:45;33.03;;;16.80;;
24425;SDS011;12611;44.446;26.000;2022-12-29T03:31:18;33.77;;;16.50;;
24425;SDS011;12611;44.446;26.000;2022-12-29T03:33:51;37.10;;;16.80;;
24425;SDS011;12611;44.446;26.000;2022-12-29T03:36:23;30.10;;;15.97;;
24425;SDS011;12611;44.446;26.000;2022-12-29T03:38:57;31.43;;;16.57;;
24425;SDS011;12611;44.446;26.000;2022-12-29T03:41:32;31.17;;;15.70;;
24425;SDS011;12611;44.446;26.000;2022-12-29T03:44:01;27.43;;;15.80;;
24425;SDS011;12611;44.446;26.000;2022-12-29T03:46:32;28.80;;;15.17;;
24425;SDS011;12611;44.446;26.000;2022-12-29T03:49:02;30.53;;;15.93;;
24425;SDS011;12611;44.446;26.000;2022-12-29T03:51:31;32.80;;;16.13;;
24425;SDS011;12611;44.446;26.000;2022-12-29T03:53:59;31.47;;;15.83;;
24425;SDS011;12611;44.446;26.000;2022-12-29T03:56:27;30.17;;;16.03;;
24425;SDS011;12611;44.446;26.000;2022-12-29T03:58:56;31.17;;;15.40;;
24425;SDS011;12611;44.446;26.000;2022-12-29T04:01:24;28.33;;;15.17;;
24425;SDS011;12611;44.446;26.000;2022-12-29T04:03:52;30.47;;;16.40;;
24425;SDS011;12611;44.446;26.000;2022-12-29T04:06:22;27.13;;;15.70;;
24425;SDS011;12611;44.446;26.000;2022-12-29T04:08:51;30.73;;;15.80;;
24425;SDS011;12611;44.446;26.000;2022-12-29T04:11:19;29.03;;;16.33;;
24425;SDS011;12611;44.446;26.000;2022-12-29T04:13:53;30.13;;;14.87;;
24425;SDS011;12611;44.446;26.000;2022-12-29T04:16:21;30.83;;;16.90;;
24425;SDS011;12611;44.446;26.000;2022-12-29T04:18:50;33.70;;;16.83;;
24425;SDS011;12611;44.446;26.000;2022-12-29T04:21:18;28.43;;;15.83;;
24425;SDS011;12611;44.446;26.000;2022-12-29T04:23:48;33.00;;;16.13;;
24425;SDS011;12611;44.446;26.000;2022-12-29T04:26:16;38.40;;;17.60;;
24425;SDS011;12611;44.446;26.000;2022-12-29T04:28:45;28.17;;;15.03;;
24425;SDS011;12611;44.446;26.000;2022-12-29T04:31:13;36.33;;;19.15;;
24425;SDS011;12611;44.446;26.000;2022-12-29T04:33:43;35.87;;;16.93;;
24425;SDS011;12611;44.446;26.000;2022-12-29T04:36:12;29.33;;;16.13;;
24425;SDS011;12611;44.446;26.000;2022-12-29T04:38:40;33.97;;;15.80;;
24425;SDS011;12611;44.446;26.000;2022-12-29T04:41:10;34.23;;;16.10;;
24425;SDS011;12611;44.446;26.000;2022-12-29T04:43:38;32.27;;;15.83;;
24425;SDS011;12611;44.446;26.000;2022-12-29T04:46:06;37.47;;;17.07;;
24425;SDS011;12611;44.446;26.000;2022-12-29T04:48:35;37.07;;;17.13;;
24425;SDS011;12611;44.446;26.000;2022-12-29T04:51:03;31.20;;;16.00;;
24425;SDS011;12611;44.446;26.000;2022-12-29T04:53:32;32.43;;;15.53;;
24425;SDS011;12611;44.446;26.000;2022-12-29T04:56:00;35.47;;;17.37;;
24425;SDS011;12611;44.446;26.000;2022-12-29T04:58:30;31.83;;;15.83;;
24425;SDS011;12611;44.446;26.000;2022-12-29T05:00:58;32.40;;;15.57;;
24425;SDS011;12611;44.446;26.000;2022-12-29T05:03:26;37.70;;;16.73;;
24425;SDS011;12611;44.446;26.000;2022-12-29T05:05:55;34.13;;;16.43;;
24425;SDS011;12611;44.446;26.000;2022-12-29T05:08:24;33.50;;;15.97;;
24425;SDS011;12611;44.446;26.000;2022-12-29T05:10:54;34.87;;;16.50;;
24425;SDS011;12611;44.446;26.000;2022-12-29T05:13:22;34.70;;;16.73;;
24425;SDS011;12611;44.446;26.000;2022-12-29T05:15:52;41.40;;;17.07;;
24425;SDS011;12611;44.446;26.000;2022-12-29T05:18:21;37.97;;;16.67;;
24425;SDS011;12611;44.446;26.000;2022-12-29T05:20:49;28.47;;;15.30;;
24425;SDS011;12611;44.446;26.000;2022-12-29T05:23:18;36.30;;;16.77;;
24425;SDS011;12611;44.446;26.000;2022-12-29T05:25:46;32.10;;;17.00;;
24425;SDS011;12611;44.446;26.000;2022-12-29T05:28:15;34.93;;;16.30;;
24425;SDS011;12611;44.446;26.000;2022-12-29T05:30:43;32.20;;;17.13;;
24425;SDS011;12611;44.446;26.000;2022-12-29T05:33:16;34.23;;;16.97;;
24425;SDS011;12611;44.446;26.000;2022-12-29T05:35:45;34.27;;;16.90;;
24425;SDS011;12611;44.446;26.000;2022-12-29T05:38:14;32.83;;;16.97;;
24425;SDS011;12611;44.446;26.000;2022-12-29T05:40:43;33.77;;;16.43;;
24425;SDS011;12611;44.446;26.000;2022-12-29T05:43:12;31.77;;;17.37;;
24425;SDS011;12611;44.446;26.000;2022-12-29T05:45:40;34.17;;;16.43;;
24425;SDS011;12611;44.446;26.000;2022-12-29T05:48:08;29.97;;;16.77;;
24425;SDS011;12611;44.446;26.000;2022-12-29T05:50:38;30.70;;;16.73;;
24425;SDS011;12611;44.446;26.000;2022-12-29T05:53:06;35.43;;;16.90;;
24425;SDS011;12611;44.446;26.000;2022-12-29T05:55:34;37.47;;;17.07;;
24425;SDS011;12611;44.446;26.000;2022-12-29T05:58:08;36.93;;;18.50;;
24425;SDS011;12611;44.446;26.000;2022-12-29T06:00:37;38.63;;;18.40;;
24425;SDS011;12611;44.446;26.000;2022-12-29T06:03:05;45.10;;;18.83;;
24425;SDS011;12611;44.446;26.000;2022-12-29T06:05:34;54.37;;;20.83;;
24425;SDS011;12611;44.446;26.000;2022-12-29T06:08:04;46.60;;;18.73;;
24425;SDS011;12611;44.446;26.000;2022-12-29T06:10:32;45.43;;;20.17;;
24425;SDS011;12611;44.446;26.000;2022-12-29T06:13:01;29.63;;;15.70;;
24425;SDS011;12611;44.446;26.000;2022-12-29T06:15:30;40.47;;;17.70;;
24425;SDS011;12611;44.446;26.000;2022-12-29T06:17:58;40.20;;;20.33;;
24425;SDS011;12611;44.446;26.000;2022-12-29T06:20:26;34.57;;;17.83;;
24425;SDS011;12611;44.446;26.000;2022-12-29T06:22:55;33.00;;;17.07;;
24425;SDS011;12611;44.446;26.000;2022-12-29T06:25:25;39.90;;;17.90;;
24425;SDS011;12611;44.446;26.000;2022-12-29T06:27:54;37.90;;;18.70;;
24425;SDS011;12611;44.446;26.000;2022-12-29T06:30:23;39.30;;;20.88;;
24425;SDS011;12611;44.446;26.000;2022-12-29T06:32:51;42.97;;;19.70;;
24425;SDS011;12611;44.446;26.000;2022-12-29T06:35:20;34.80;;;17.43;;
24425;SDS011;12611;44.446;26.000;2022-12-29T06:37:49;35.77;;;17.87;;
24425;SDS011;12611;44.446;26.000;2022-12-29T06:40:18;41.10;;;17.93;;
24425;SDS011;12611;44.446;26.000;2022-12-29T06:42:47;34.67;;;18.23;;
24425;SDS011;12611;44.446;26.000;2022-12-29T06:45:16;37.83;;;16.30;;
24425;SDS011;12611;44.446;26.000;2022-12-29T06:47:44;34.80;;;16.90;;
24425;SDS011;12611;44.446;26.000;2022-12-29T06:50:13;37.07;;;17.37;;
24425;SDS011;12611;44.446;26.000;2022-12-29T06:52:41;40.43;;;18.17;;
24425;SDS011;12611;44.446;26.000;2022-12-29T06:55:09;92.47;;;32.77;;
24425;SDS011;12611;44.446;26.000;2022-12-29T06:57:38;80.07;;;29.30;;
24425;SDS011;12611;44.446;26.000;2022-12-29T07:00:08;62.50;;;25.10;;
24425;SDS011;12611;44.446;26.000;2022-12-29T07:02:37;54.00;;;22.67;;
24425;SDS011;12611;44.446;26.000;2022-12-29T07:05:06;67.07;;;23.80;;
24425;SDS011;12611;44.446;26.000;2022-12-29T07:07:35;42.47;;;20.00;;
24425;SDS011;12611;44.446;26.000;2022-12-29T07:10:04;43.90;;;21.17;;
24425;SDS011;12611;44.446;26.000;2022-12-29T07:12:33;38.20;;;18.17;;
24425;SDS011;12611;44.446;26.000;2022-12-29T07:15:01;38.88;;;20.67;;
24425;SDS011;12611;44.446;26.000;2022-12-29T07:17:31;34.43;;;18.00;;
24425;SDS011;12611;44.446;26.000;2022-12-29T07:19:59;35.20;;;16.80;;
24425;SDS011;12611;44.446;26.000;2022-12-29T07:22:27;39.00;;;17.00;;
24425;SDS011;12611;44.446;26.000;2022-12-29T07:24:56;35.50;;;15.37;;
24425;SDS011;12611;44.446;26.000;2022-12-29T07:27:24;35.33;;;17.80;;
24425;SDS011;12611;44.446;26.000;2022-12-29T07:29:52;30.67;;;16.07;;
24425;SDS011;12611;44.446;26.000;2022-12-29T07:32:21;31.87;;;15.00;;
24425;SDS011;12611;44.446;26.000;2022-12-29T07:34:51;37.73;;;14.90;;
24425;SDS011;12611;44.446;26.000;2022-12-29T07:37:20;31.17;;;13.97;;
24425;SDS011;12611;44.446;26.000;2022-12-29T07:39:48;33.43;;;14.80;;
24425;SDS011;12611;44.446;26.000;2022-12-29T07:42:16;28.40;;;14.23;;
24425;SDS011;12611;44.446;26.000;2022-12-29T07:44:44;25.67;;;13.73;;
24425;SDS011;12611;44.446;26.000;2022-12-29T07:47:13;34.03;;;14.07;;
24425;SDS011;12611;44.446;26.000;2022-12-29T07:49:41;30.07;;;14.67;;
24425;SDS011;12611;44.446;26.000;2022-12-29T07:52:11;33.57;;;15.27;;
24425;SDS011;12611;44.446;26.000;2022-12-29T07:54:39;28.60;;;14.37;;
24425;SDS011;12611;44.446;26.000;2022-12-29T07:57:07;32.97;;;15.60;;
24425;SDS011;12611;44.446;26.000;2022-12-29T07:59:36;29.17;;;12.77;;
24425;SDS011;12611;44.446;26.000;2022-12-29T08:02:04;28.85;;;13.70;;
24425;SDS011;12611;44.446;26.000;2022-12-29T08:04:33;20.77;;;11.87;;
24425;SDS011;12611;44.446;26.000;2022-12-29T08:07:01;27.47;;;12.63;;
24425;SDS011;12611;44.446;26.000;2022-12-29T08:09:31;29.70;;;12.13;;
24425;SDS011;12611;44.446;26.000;2022-12-29T08:11:59;23.40;;;12.07;;
24425;SDS011;12611;44.446;26.000;2022-12-29T08:14:27;23.20;;;12.25;;
24425;SDS011;12611;44.446;26.000;2022-12-29T08:16:55;24.97;;;12.40;;
24425;SDS011;12611;44.446;26.000;2022-12-29T08:19:24;25.03;;;11.20;;
24425;SDS011;12611;44.446;26.000;2022-12-29T08:21:52;30.33;;;11.70;;
24425;SDS011;12611;44.446;26.000;2022-12-29T08:24:20;18.97;;;11.70;;
24425;SDS011;12611;44.446;26.000;2022-12-29T08:26:50;23.83;;;12.17;;
24425;SDS011;12611;44.446;26.000;2022-12-29T08:29:19;25.80;;;11.90;;
24425;SDS011;12611;44.446;26.000;2022-12-29T08:31:48;22.13;;;11.83;;
24425;SDS011;12611;44.446;26.000;2022-12-29T08:34:16;23.57;;;11.00;;
24425;SDS011;12611;44.446;26.000;2022-12-29T08:36:44;24.03;;;10.33;;
24425;SDS011;12611;44.446;26.000;2022-12-29T08:39:16;27.73;;;12.60;;
24425;SDS011;12611;44.446;26.000;2022-12-29T08:41:47;18.83;;;11.30;;
24425;SDS011;12611;44.446;26.000;2022-12-29T08:44:17;20.90;;;9.43;;
24425;SDS011;12611;44.446;26.000;2022-12-29T08:46:45;19.47;;;10.37;;
24425;SDS011;12611;44.446;26.000;2022-12-29T08:49:13;20.10;;;9.17;;
24425;SDS011;12611;44.446;26.000;2022-12-29T08:51:42;19.60;;;10.57;;
24425;SDS011;12611;44.446;26.000;2022-12-29T08:54:10;21.77;;;10.43;;
24425;SDS011;12611;44.446;26.000;2022-12-29T08:56:39;19.27;;;10.20;;
24425;SDS011;12611;44.446;26.000;2022-12-29T08:59:07;20.53;;;10.43;;
24425;SDS011;12611;44.446;26.000;2022-12-29T09:01:37;19.08;;;10.20;;
24425;SDS011;12611;44.446;26.000;2022-12-29T09:04:07;16.60;;;8.07;;
24425;SDS011;12611;44.446;26.000;2022-12-29T09:06:41;15.33;;;7.43;;
24425;SDS011;12611;44.446;26.000;2022-12-29T09:09:09;17.47;;;8.07;;
24425;SDS011;12611;44.446;26.000;2022-12-29T09:11:38;15.40;;;7.73;;
24425;SDS011;12611;44.446;26.000;2022-12-29T09:14:06;17.42;;;8.93;;
24425;SDS011;12611;44.446;26.000;2022-12-29T09:16:36;20.13;;;8.77;;
24425;SDS011;12611;44.446;26.000;2022-12-29T09:19:05;18.93;;;8.33;;
24425;SDS011;12611;44.446;26.000;2022-12-29T09:21:33;15.30;;;8.30;;
24425;SDS011;12611;44.446;26.000;2022-12-29T09:24:01;10.43;;;6.37;;
24425;SDS011;12611;44.446;26.000;2022-12-29T09:26:30;15.07;;;7.95;;
24425;SDS011;12611;44.446;26.000;2022-12-29T09:28:58;17.93;;;7.83;;
24425;SDS011;12611;44.446;26.000;2022-12-29T09:31:27;13.63;;;7.03;;
24425;SDS011;12611;44.446;26.000;2022-12-29T09:33:56;16.13;;;7.50;;
24425;SDS011;12611;44.446;26.000;2022-12-29T09:36:25;15.27;;;7.60;;
24425;SDS011;12611;44.446;26.000;2022-12-29T09:38:54;16.90;;;7.83;;
24425;SDS011;12611;44.446;26.000;2022-12-29T09:41:24;13.07;;;6.53;;
24425;SDS011;12611;44.446;26.000;2022-12-29T09:44:03;13.73;;;6.70;;
24425;SDS011;12611;44.446;26.000;2022-12-29T09:46:40;17.03;;;7.63;;
24425;SDS011;12611;44.446;26.000;2022-12-29T09:49:18;13.03;;;7.00;;
24425;SDS011;12611;44.446;26.000;2022-12-29T09:51:52;16.60;;;6.30;;
24425;SDS011;12611;44.446;26.000;2022-12-29T09:57:28;11.40;;;6.73;;
24425;SDS011;12611;44.446;26.000;2022-12-29T10:00:02;15.33;;;6.93;;
24425;SDS011;12611;44.446;26.000;2022-12-29T10:02:36;13.23;;;6.53;;
24425;SDS011;12611;44.446;26.000;2022-12-29T10:05:16;14.97;;;6.80;;
24425;SDS011;12611;44.446;26.000;2022-12-29T10:07:50;11.03;;;4.90;;
24425;SDS011;12611;44.446;26.000;2022-12-29T10:10:27;14.20;;;5.50;;
24425;SDS011;12611;44.446;26.000;2022-12-29T10:13:06;10.50;;;5.40;;
24425;SDS011;12611;44.446;26.000;2022-12-29T10:15:51;11.17;;;4.97;;
24425;SDS011;12611;44.446;26.000;2022-12-29T10:18:44;8.50;;;4.50;;
24425;SDS011;12611;44.446;26.000;2022-12-29T10:21:28;10.87;;;4.70;;
24425;SDS011;12611;44.446;26.000;2022-12-29T10:24:11;17.03;;;5.17;;
24425;SDS011;12611;44.446;26.000;2022-12-29T10:26:41;18.47;;;4.83;;
24425;SDS011;12611;44.446;26.000;2022-12-29T10:29:13;10.63;;;5.00;;
24425;SDS011;12611;44.446;26.000;2022-12-29T10:31:46;8.70;;;4.30;;
24425;SDS011;12611;44.446;26.000;2022-12-29T10:34:19;12.73;;;4.90;;
24425;SDS011;12611;44.446;26.000;2022-12-29T10:36:53;8.07;;;4.40;;
24425;SDS011;12611;44.446;26.000;2022-12-29T10:39:26;9.23;;;4.43;;
24425;SDS011;12611;44.446;26.000;2022-12-29T10:42:01;7.27;;;4.83;;
24425;SDS011;12611;44.446;26.000;2022-12-29T10:44:37;9.70;;;4.57;;
24425;SDS011;12611;44.446;26.000;2022-12-29T10:47:07;10.00;;;4.87;;
24425;SDS011;12611;44.446;26.000;2022-12-29T10:49:41;7.60;;;3.93;;
24425;SDS011;12611;44.446;26.000;2022-12-29T10:52:11;10.67;;;3.83;;
24425;SDS011;12611;44.446;26.000;2022-12-29T10:54:44;8.67;;;4.30;;
24425;SDS011;12611;44.446;26.000;2022-12-29T10:57:20;12.50;;;5.07;;
24425;SDS011;12611;44.446;26.000;2022-12-29T10:59:54;11.80;;;4.70;;
24425;SDS011;12611;44.446;26.000;2022-12-29T11:02:26;13.97;;;4.87;;
24425;SDS011;12611;44.446;26.000;2022-12-29T11:05:10;12.17;;;5.20;;
24425;SDS011;12611;44.446;26.000;2022-12-29T11:07:47;12.77;;;5.50;;
24425;SDS011;12611;44.446;26.000;2022-12-29T11:10:18;10.40;;;5.73;;
24425;SDS011;12611;44.446;26.000;2022-12-29T11:12:58;12.13;;;5.60;;
24425;SDS011;12611;44.446;26.000;2022-12-29T11:15:27;10.40;;;5.03;;
24425;SDS011;12611;44.446;26.000;2022-12-29T11:18:16;11.37;;;4.50;;
24425;SDS011;12611;44.446;26.000;2022-12-29T11:20:46;11.30;;;5.13;;
24425;SDS011;12611;44.446;26.000;2022-12-29T11:23:25;12.40;;;5.13;;
24425;SDS011;12611;44.446;26.000;2022-12-29T11:29:02;9.27;;;5.23;;
24425;SDS011;12611;44.446;26.000;2022-12-29T11:31:42;10.77;;;5.77;;
24425;SDS011;12611;44.446;26.000;2022-12-29T11:34:16;10.87;;;4.30;;
24425;SDS011;12611;44.446;26.000;2022-12-29T11:36:46;14.87;;;4.97;;
24425;SDS011;12611;44.446;26.000;2022-12-29T11:39:26;7.30;;;4.03;;
24425;SDS011;12611;44.446;26.000;2022-12-29T11:41:57;8.27;;;4.33;;
24425;SDS011;12611;44.446;26.000;2022-12-29T11:44:27;9.53;;;4.43;;
24425;SDS011;12611;44.446;26.000;2022-12-29T11:46:57;8.67;;;3.80;;
24425;SDS011;12611;44.446;26.000;2022-12-29T11:49:25;8.00;;;4.10;;
24425;SDS011;12611;44.446;26.000;2022-12-29T11:51:54;12.93;;;4.37;;
24425;SDS011;12611;44.446;26.000;2022-12-29T11:54:25;9.17;;;3.90;;
24425;SDS011;12611;44.446;26.000;2022-12-29T11:56:56;6.40;;;3.50;;
24425;SDS011;12611;44.446;26.000;2022-12-29T11:59:42;7.57;;;4.40;;
24425;SDS011;12611;44.446;26.000;2022-12-29T12:05:22;7.80;;;4.20;;
24425;SDS011;12611;44.446;26.000;2022-12-29T12:08:00;9.40;;;4.30;;
24425;SDS011;12611;44.446;26.000;2022-12-29T12:10:35;8.27;;;3.80;;
24425;SDS011;12611;44.446;26.000;2022-12-29T12:13:15;12.07;;;4.70;;
24425;SDS011;12611;44.446;26.000;2022-12-29T12:15:49;8.63;;;3.90;;
24425;SDS011;12611;44.446;26.000;2022-12-29T12:18:26;8.37;;;4.60;;
24425;SDS011;12611;44.446;26.000;2022-12-29T12:21:04;9.30;;;4.40;;
24425;SDS011;12611;44.446;26.000;2022-12-29T12:23:52;9.27;;;4.10;;
24425;SDS011;12611;44.446;26.000;2022-12-29T12:26:46;9.10;;;3.83;;
24425;SDS011;12611;44.446;26.000;2022-12-29T12:29:28;12.33;;;4.17;;
24425;SDS011;12611;44.446;26.000;2022-12-29T12:32:05;14.57;;;4.33;;
24425;SDS011;12611;44.446;26.000;2022-12-29T12:34:42;7.37;;;4.17;;
24425;SDS011;12611;44.446;26.000;2022-12-29T12:37:17;7.80;;;3.83;;
24425;SDS011;12611;44.446;26.000;2022-12-29T12:43:23;7.70;;;3.87;;
24425;SDS011;12611;44.446;26.000;2022-12-29T12:52:11;11.63;;;4.65;;
24425;SDS011;12611;44.446;26.000;2022-12-29T12:54:53;9.97;;;4.63;;
24425;SDS011;12611;44.446;26.000;2022-12-29T12:57:33;11.03;;;4.13;;
24425;SDS011;12611;44.446;26.000;2022-12-29T13:00:14;9.70;;;4.30;;
24425;SDS011;12611;44.446;26.000;2022-12-29T13:02:49;8.60;;;3.50;;
24425;SDS011;12611;44.446;26.000;2022-12-29T13:08:35;8.77;;;4.70;;
24425;SDS011;12611;44.446;26.000;2022-12-29T13:11:17;9.23;;;4.13;;
24425;SDS011;12611;44.446;26.000;2022-12-29T13:13:55;9.43;;;4.40;;
24425;SDS011;12611;44.446;26.000;2022-12-29T13:16:44;7.30;;;3.73;;
24425;SDS011;12611;44.446;26.000;2022-12-29T13:19:22;6.37;;;3.73;;
24425;SDS011;12611;44.446;26.000;2022-12-29T13:22:01;10.77;;;3.67;;
24425;SDS011;12611;44.446;26.000;2022-12-29T13:24:36;7.50;;;4.00;;
24425;SDS011;12611;44.446;26.000;2022-12-29T13:27:15;6.63;;;3.60;;
24425;SDS011;12611;44.446;26.000;2022-12-29T13:29:50;6.90;;;3.60;;
24425;SDS011;12611;44.446;26.000;2022-12-29T13:32:33;12.30;;;4.00;;
24425;SDS011;12611;44.446;26.000;2022-12-29T13:35:16;8.40;;;4.27;;
24425;SDS011;12611;44.446;26.000;2022-12-29T13:38:07;7.80;;;3.97;;
24425;SDS011;12611;44.446;26.000;2022-12-29T13:40:39;11.05;;;4.18;;
24425;SDS011;12611;44.446;26.000;2022-12-29T13:43:12;8.13;;;4.20;;
24425;SDS011;12611;44.446;26.000;2022-12-29T13:45:41;8.93;;;4.25;;
24425;SDS011;12611;44.446;26.000;2022-12-29T13:48:14;8.63;;;4.55;;
24425;SDS011;12611;44.446;26.000;2022-12-29T13:50:50;11.93;;;5.40;;
24425;SDS011;12611;44.446;26.000;2022-12-29T13:53:24;10.18;;;5.13;;
24425;SDS011;12611;44.446;26.000;2022-12-29T13:56:03;11.43;;;5.38;;
24425;SDS011;12611;44.446;26.000;2022-12-29T13:58:36;10.45;;;5.75;;
24425;SDS011;12611;44.446;26.000;2022-12-29T14:01:10;10.38;;;5.35;;
24425;SDS011;12611;44.446;26.000;2022-12-29T14:03:48;10.00;;;5.43;;
24425;SDS011;12611;44.446;26.000;2022-12-29T14:06:22;11.07;;;5.65;;
24425;SDS011;12611;44.446;26.000;2022-12-29T14:08:53;13.60;;;5.90;;
24425;SDS011;12611;44.446;26.000;2022-12-29T14:11:23;9.77;;;5.27;;
24425;SDS011;12611;44.446;26.000;2022-12-29T14:13:58;12.67;;;5.47;;
24425;SDS011;12611;44.446;26.000;2022-12-29T14:16:38;10.00;;;5.10;;
24425;SDS011;12611;44.446;26.000;2022-12-29T14:19:12;14.80;;;6.00;;
24425;SDS011;12611;44.446;26.000;2022-12-29T14:21:49;15.23;;;6.00;;
24425;SDS011;12611;44.446;26.000;2022-12-29T14:24:28;11.20;;;6.03;;
24425;SDS011;12611;44.446;26.000;2022-12-29T14:33:12;12.17;;;6.37;;
24425;SDS011;12611;44.446;26.000;2022-12-29T14:35:43;14.17;;;6.90;;
24425;SDS011;12611;44.446;26.000;2022-12-29T14:38:17;12.93;;;6.23;;
24425;SDS011;12611;44.446;26.000;2022-12-29T14:40:50;17.73;;;7.43;;
24425;SDS011;12611;44.446;26.000;2022-12-29T14:43:24;15.77;;;7.70;;
24425;SDS011;12611;44.446;26.000;2022-12-29T14:45:55;18.07;;;8.37;;
24425;SDS011;12611;44.446;26.000;2022-12-29T14:48:36;21.90;;;8.97;;
24425;SDS011;12611;44.446;26.000;2022-12-29T14:51:18;18.60;;;8.13;;
24425;SDS011;12611;44.446;26.000;2022-12-29T14:53:49;15.20;;;7.63;;
24425;SDS011;12611;44.446;26.000;2022-12-29T14:56:18;15.77;;;8.30;;
24425;SDS011;12611;44.446;26.000;2022-12-29T14:58:53;15.03;;;8.23;;
24425;SDS011;12611;44.446;26.000;2022-12-29T15:01:25;13.57;;;7.00;;
24425;SDS011;12611;44.446;26.000;2022-12-29T15:04:00;15.40;;;7.93;;
24425;SDS011;12611;44.446;26.000;2022-12-29T15:06:36;17.00;;;7.53;;
24425;SDS011;12611;44.446;26.000;2022-12-29T15:09:10;12.07;;;6.80;;
24425;SDS011;12611;44.446;26.000;2022-12-29T15:11:51;13.95;;;7.43;;
24425;SDS011;12611;44.446;26.000;2022-12-29T15:14:28;17.23;;;8.10;;
24425;SDS011;12611;44.446;26.000;2022-12-29T15:17:02;16.67;;;8.07;;
24425;SDS011;12611;44.446;26.000;2022-12-29T15:19:38;13.97;;;7.63;;
24425;SDS011;12611;44.446;26.000;2022-12-29T15:22:08;15.73;;;8.50;;